createdAt,value
2022-10-22T00:02:20.804Z,9.38
2022-10-22T00:04:48.981Z,9.05
2022-10-22T00:07:16.995Z,9.20
2022-10-22T00:09:43.728Z,8.95
2022-10-22T00:12:10.658Z,8.98
2022-10-22T00:14:37.933Z,9.05
2022-10-22T00:17:06.911Z,9.40
2022-10-22T00:19:38.105Z,9.60
2022-10-22T00:22:07.870Z,9.32
2022-10-22T00:24:35.455Z,9.45
2022-10-22T00:27:02.637Z,9.75
2022-10-22T00:29:29.660Z,9.93
2022-10-22T00:31:56.895Z,10.25
2022-10-22T00:34:23.874Z,9.52
2022-10-22T00:36:51.299Z,9.35
2022-10-22T00:39:20.994Z,10.45
2022-10-22T00:41:49.572Z,9.40
2022-10-22T00:44:54.200Z,9.57
2022-10-22T00:47:21.338Z,9.73
2022-10-22T00:49:48.232Z,9.20
2022-10-22T00:52:15.080Z,9.80
2022-10-22T00:54:42.528Z,9.88
2022-10-22T00:57:09.713Z,9.38
2022-10-22T00:59:37.278Z,9.27
2022-10-22T01:02:04.196Z,8.40
2022-10-22T01:04:30.912Z,9.38
2022-10-22T01:06:57.610Z,8.95
2022-10-22T01:09:31.761Z,9.73
2022-10-22T01:12:21.722Z,10.57
2022-10-22T01:15:10.546Z,10.82
2022-10-22T01:17:48.917Z,9.35
2022-10-22T01:20:52.587Z,9.95
2022-10-22T01:23:33.049Z,9.70
2022-10-22T01:26:13.345Z,10.07
2022-10-22T01:28:51.979Z,9.50
2022-10-22T01:31:20.273Z,9.30
2022-10-22T01:33:48.828Z,8.90
2022-10-22T01:36:15.985Z,9.45
2022-10-22T01:38:43.134Z,9.20
2022-10-22T01:41:11.140Z,8.57
2022-10-22T01:43:37.888Z,9.27
2022-10-22T01:46:06.438Z,9.35
2022-10-22T01:48:53.353Z,9.60
2022-10-22T01:51:47.383Z,8.52
2022-10-22T01:54:57.030Z,8.98
2022-10-22T01:57:54.549Z,8.48
2022-10-22T02:00:21.696Z,9.10
2022-10-22T02:03:00.873Z,8.10
2022-10-22T02:05:33.134Z,7.93
2022-10-22T02:08:03.607Z,7.43
2022-10-22T02:10:31.424Z,9.60
2022-10-22T02:12:58.957Z,9.63
2022-10-22T02:15:27.143Z,8.65
2022-10-22T02:17:54.205Z,8.55
2022-10-22T02:20:41.655Z,8.70
2022-10-22T02:23:10.012Z,8.15
2022-10-22T02:25:39.705Z,8.73
2022-10-22T02:28:29.839Z,8.73
2022-10-22T02:31:00.934Z,8.20
2022-10-22T02:33:30.699Z,8.32
2022-10-22T02:35:58.568Z,8.40
2022-10-22T02:38:26.294Z,9.27
2022-10-22T02:40:52.978Z,8.15
2022-10-22T02:43:19.728Z,7.82
2022-10-22T02:45:46.759Z,8.18
2022-10-22T02:48:13.537Z,7.20
2022-10-22T02:50:40.235Z,8.02
2022-10-22T02:53:06.937Z,7.10
2022-10-22T02:55:33.619Z,7.63
2022-10-22T02:58:00.304Z,8.05
2022-10-22T03:00:27.020Z,7.85
2022-10-22T03:02:53.710Z,8.18
2022-10-22T03:05:20.461Z,8.40
2022-10-22T03:07:47.136Z,8.05
2022-10-22T03:10:13.856Z,8.57
2022-10-22T03:12:40.547Z,8.45
2022-10-22T03:15:07.380Z,8.82
2022-10-22T03:17:34.021Z,8.07
2022-10-22T03:20:00.696Z,8.07
2022-10-22T03:22:29.755Z,8.18
2022-10-22T03:24:59.743Z,7.82
2022-10-22T03:27:28.556Z,8.43
2022-10-22T03:29:55.900Z,7.70
2022-10-22T03:32:22.578Z,8.95
2022-10-22T03:34:49.323Z,7.38
2022-10-22T03:37:16.074Z,8.32
2022-10-22T03:39:42.791Z,8.07
2022-10-22T03:42:09.493Z,7.82
2022-10-22T03:44:37.577Z,8.05
2022-10-22T03:47:04.462Z,8.25
2022-10-22T03:49:31.180Z,7.95
2022-10-22T03:51:57.907Z,8.65
2022-10-22T03:54:24.646Z,8.05
2022-10-22T03:56:51.415Z,8.65
2022-10-22T03:59:18.202Z,7.68
2022-10-22T04:01:44.878Z,8.27
2022-10-22T04:04:11.563Z,8.77
2022-10-22T04:06:38.268Z,7.93
2022-10-22T04:09:04.996Z,8.30
2022-10-22T04:11:31.783Z,7.50
2022-10-22T04:13:58.455Z,7.72
2022-10-22T04:16:27.551Z,8.55
2022-10-22T04:18:57.315Z,7.55
2022-10-22T04:21:24.108Z,7.95
2022-10-22T04:23:52.574Z,7.55
2022-10-22T04:26:20.025Z,7.53
2022-10-22T04:28:47.661Z,7.57
2022-10-22T04:31:16.518Z,8.45
2022-10-22T04:33:43.205Z,8.38
2022-10-22T04:36:12.769Z,8.63
2022-10-22T04:38:39.881Z,8.32
2022-10-22T04:41:11.613Z,8.73
2022-10-22T04:43:38.846Z,8.30
2022-10-22T04:46:06.048Z,8.48
2022-10-22T04:48:32.766Z,7.93
2022-10-22T04:51:00.844Z,8.80
2022-10-22T04:53:28.029Z,8.32
2022-10-22T04:55:54.934Z,8.10
2022-10-22T04:58:21.677Z,8.00
2022-10-22T05:00:48.557Z,8.32
2022-10-22T05:03:15.254Z,8.40
2022-10-22T05:05:41.898Z,8.10
2022-10-22T05:08:08.565Z,7.78
2022-10-22T05:10:35.232Z,7.43
2022-10-22T05:13:01.893Z,8.18
2022-10-22T05:15:28.554Z,8.00
2022-10-22T05:17:55.234Z,8.63
2022-10-22T05:20:22.589Z,8.65
2022-10-22T05:22:49.304Z,7.55
2022-10-22T05:25:16.025Z,7.57
2022-10-22T05:27:42.873Z,8.07
2022-10-22T05:30:10.004Z,7.60
2022-10-22T05:32:36.851Z,7.18
2022-10-22T05:35:03.679Z,7.90
2022-10-22T05:37:30.420Z,7.95
2022-10-22T05:40:06.589Z,7.60
2022-10-22T05:42:43.845Z,8.07
2022-10-22T05:45:10.708Z,7.70
2022-10-22T05:47:37.517Z,8.13
2022-10-22T05:50:04.296Z,7.95
2022-10-22T05:52:30.946Z,8.13
2022-10-22T05:54:57.646Z,8.25
2022-10-22T05:57:24.291Z,7.68
2022-10-22T05:59:51.105Z,7.90
2022-10-22T06:02:17.879Z,8.70
2022-10-22T06:04:44.753Z,7.82
2022-10-22T06:07:15.505Z,8.20
2022-10-22T06:09:42.480Z,8.43
2022-10-22T06:12:13.891Z,7.88
2022-10-22T06:14:40.636Z,8.77
2022-10-22T06:17:07.520Z,8.52
2022-10-22T06:19:34.349Z,8.10
2022-10-22T06:22:00.993Z,8.65
2022-10-22T06:24:27.650Z,8.13
2022-10-22T06:26:54.339Z,8.57
2022-10-22T06:29:21.087Z,8.60
2022-10-22T06:31:48.293Z,7.68
2022-10-22T06:34:16.022Z,8.05
2022-10-22T06:36:44.148Z,8.50
2022-10-22T06:39:16.872Z,8.23
2022-10-22T06:41:43.573Z,7.95
2022-10-22T06:44:17.581Z,8.35
2022-10-22T06:46:44.375Z,7.95
2022-10-22T06:49:15.632Z,7.32
2022-10-22T06:51:42.567Z,8.38
2022-10-22T06:54:09.835Z,7.72
2022-10-22T06:56:36.617Z,7.65
2022-10-22T06:59:03.824Z,8.57
2022-10-22T07:01:33.333Z,8.27
2022-10-22T07:04:00.357Z,7.80
2022-10-22T07:06:28.616Z,7.93
2022-10-22T07:08:56.673Z,8.25
2022-10-22T07:11:25.925Z,9.52
2022-10-22T07:13:55.250Z,8.63
2022-10-22T07:16:22.342Z,8.70
2022-10-22T07:18:49.486Z,8.77
2022-10-22T07:21:18.341Z,8.38
2022-10-22T07:23:48.357Z,8.35
2022-10-22T07:26:16.846Z,8.30
2022-10-22T07:28:44.017Z,8.90
2022-10-22T07:31:13.655Z,9.13
2022-10-22T07:33:40.940Z,9.07
2022-10-22T07:36:11.217Z,9.10
2022-10-22T07:38:37.973Z,8.48
2022-10-22T07:41:04.785Z,8.95
2022-10-22T07:43:31.663Z,9.55
2022-10-22T07:45:59.824Z,10.40
2022-10-22T07:48:26.780Z,9.85
2022-10-22T07:50:53.547Z,9.57
2022-10-22T07:53:21.470Z,9.10
2022-10-22T07:55:49.583Z,9.40
2022-10-22T07:58:17.607Z,9.55
2022-10-22T08:00:44.824Z,9.45
2022-10-22T08:03:12.171Z,9.00
2022-10-22T08:05:39.531Z,9.88
2022-10-22T08:08:07.163Z,9.98
2022-10-22T08:10:34.994Z,9.93
2022-10-22T08:13:05.305Z,9.43
2022-10-22T08:15:32.100Z,9.85
2022-10-22T08:17:59.522Z,9.38
2022-10-22T08:20:26.259Z,9.57
2022-10-22T08:22:53.419Z,9.25
2022-10-22T08:25:20.138Z,10.52
2022-10-22T08:27:46.962Z,10.77
2022-10-22T08:30:14.453Z,10.70
2022-10-22T08:32:41.794Z,10.27
2022-10-22T08:35:08.546Z,11.05
2022-10-22T08:37:36.050Z,10.68
2022-10-22T08:40:03.593Z,10.18
2022-10-22T08:42:49.061Z,10.25
2022-10-22T08:45:26.670Z,9.75
2022-10-22T08:48:05.948Z,10.18
2022-10-22T08:50:37.657Z,10.10
2022-10-22T08:53:11.419Z,9.40
2022-10-22T08:55:38.957Z,9.85
2022-10-22T08:58:27.322Z,9.45
2022-10-22T09:01:33.040Z,10.15
2022-10-22T09:04:02.836Z,10.32
2022-10-22T09:06:32.806Z,10.02
2022-10-22T09:09:00.776Z,10.25
2022-10-22T09:11:27.479Z,10.10
2022-10-22T09:13:55.985Z,9.98
2022-10-22T09:17:00.412Z,11.05
2022-10-22T09:19:48.201Z,10.32
2022-10-22T09:22:18.698Z,10.50
2022-10-22T09:24:47.794Z,10.00
2022-10-22T09:27:20.693Z,10.48
2022-10-22T09:29:48.218Z,10.13
2022-10-22T09:32:16.231Z,11.13
2022-10-22T09:34:50.348Z,9.73
2022-10-22T09:37:19.404Z,10.75
2022-10-22T09:39:48.418Z,10.60
2022-10-22T09:42:16.777Z,9.50
2022-10-22T09:44:47.673Z,9.90
2022-10-22T09:47:43.718Z,10.15
2022-10-22T09:50:43.444Z,10.10
2022-10-22T09:53:16.228Z,8.95
2022-10-22T09:55:43.531Z,10.13
2022-10-22T09:58:23.326Z,9.10
2022-10-22T10:00:57.023Z,9.48
2022-10-22T10:03:30.085Z,10.52
2022-10-22T10:06:02.977Z,8.48
2022-10-22T10:08:33.013Z,9.38
2022-10-22T10:11:03.385Z,8.95
2022-10-22T10:13:49.024Z,8.77
2022-10-22T10:16:45.181Z,8.68
2022-10-22T10:19:22.053Z,8.70
2022-10-22T10:21:58.141Z,8.40
2022-10-22T10:24:25.071Z,8.50
2022-10-22T10:27:00.991Z,8.60
2022-10-22T10:29:42.258Z,8.85
2022-10-22T10:32:24.409Z,8.80
2022-10-22T10:35:22.913Z,8.55
2022-10-22T10:38:07.331Z,9.43
2022-10-22T10:40:50.966Z,8.05
2022-10-22T10:43:22.353Z,7.45
2022-10-22T10:46:08.195Z,9.07
2022-10-22T10:48:53.528Z,7.78
2022-10-22T10:51:51.127Z,8.07
2022-10-22T10:54:27.753Z,7.35
2022-10-22T10:57:04.561Z,7.57
2022-10-22T11:00:00.205Z,7.35
2022-10-22T11:02:52.300Z,6.90
2022-10-22T11:05:39.371Z,6.65
2022-10-22T11:08:06.471Z,5.47
2022-10-22T11:10:45.191Z,5.75
2022-10-22T11:13:15.554Z,5.32
2022-10-22T11:15:47.628Z,6.53
2022-10-22T11:18:16.221Z,5.47
2022-10-22T11:20:51.237Z,5.90
2022-10-22T11:23:26.058Z,5.75
2022-10-22T11:25:56.609Z,5.32
2022-10-22T11:28:34.510Z,6.50
2022-10-22T11:31:04.392Z,5.70
2022-10-22T11:34:00.519Z,6.30
2022-10-22T11:39:29.511Z,5.32
2022-10-22T11:41:59.021Z,4.80
2022-10-22T11:44:26.150Z,4.97
2022-10-22T11:47:25.926Z,4.30
2022-10-22T11:50:23.143Z,5.18
2022-10-22T11:53:05.556Z,4.30
2022-10-22T11:55:55.649Z,4.90
2022-10-22T11:58:30.725Z,4.70
2022-10-22T12:01:09.783Z,4.10
2022-10-22T12:03:43.308Z,4.13
2022-10-22T12:06:13.054Z,3.90
2022-10-22T12:08:49.917Z,4.03
2022-10-22T12:11:19.993Z,4.13
2022-10-22T12:14:00.366Z,3.78
2022-10-22T12:16:54.731Z,3.42
2022-10-22T12:19:23.018Z,3.13
2022-10-22T12:21:53.960Z,3.65
2022-10-22T12:24:24.014Z,3.35
2022-10-22T12:26:52.796Z,2.85
2022-10-22T12:29:26.867Z,3.70
2022-10-22T12:31:54.829Z,2.92
2022-10-22T12:34:23.766Z,2.97
2022-10-22T12:36:53.086Z,3.30
2022-10-22T12:39:26.754Z,2.65
2022-10-22T12:41:54.678Z,2.90
2022-10-22T12:44:21.387Z,3.30
2022-10-22T12:46:52.978Z,3.10
2022-10-22T12:49:35.766Z,2.78
2022-10-22T12:52:12.039Z,3.22
2022-10-22T12:54:40.147Z,3.17
2022-10-22T12:57:10.277Z,2.42
2022-10-22T12:59:38.483Z,3.72
2022-10-22T13:02:17.655Z,2.65
2022-10-22T13:05:06.839Z,2.10
2022-10-22T13:07:39.353Z,2.50
2022-10-22T13:10:19.806Z,3.17
2022-10-22T13:12:51.439Z,2.15
2022-10-22T13:15:38.904Z,2.10
2022-10-22T13:18:14.687Z,2.13
2022-10-22T13:21:01.876Z,2.22
2022-10-22T13:23:30.872Z,1.70
2022-10-22T13:25:57.504Z,2.00
2022-10-22T13:28:27.031Z,1.80
2022-10-22T13:31:02.348Z,1.85
2022-10-22T13:33:37.959Z,1.80
2022-10-22T13:36:05.694Z,2.13
2022-10-22T13:38:32.659Z,2.47
2022-10-22T13:40:59.631Z,1.95
2022-10-22T13:43:26.734Z,2.00
2022-10-22T13:45:56.086Z,1.90
2022-10-22T13:48:24.347Z,2.30
2022-10-22T13:50:51.931Z,2.15
2022-10-22T13:53:23.949Z,1.77
2022-10-22T13:55:50.790Z,1.67
2022-10-22T13:58:20.063Z,1.95
2022-10-22T14:00:54.520Z,1.80
2022-10-22T14:03:24.305Z,1.45
2022-10-22T14:05:51.174Z,2.30
2022-10-22T14:08:20.714Z,2.00
2022-10-22T14:10:47.759Z,1.50
2022-10-22T14:13:16.931Z,2.00
2022-10-22T14:15:45.632Z,1.50
2022-10-22T14:18:16.340Z,1.50
2022-10-22T14:20:43.284Z,1.85
2022-10-22T14:23:19.619Z,1.55
2022-10-22T14:25:46.624Z,1.42
2022-10-22T14:28:14.314Z,1.50
2022-10-22T14:30:41.184Z,1.70
2022-10-22T14:33:20.059Z,1.75
2022-10-22T14:35:48.987Z,1.60
2022-10-22T14:38:16.735Z,1.55
2022-10-22T14:40:44.500Z,1.88
2022-10-22T14:43:31.933Z,1.40
2022-10-22T14:45:59.883Z,1.80
2022-10-22T14:48:27.146Z,1.95
2022-10-22T14:50:54.792Z,1.58
2022-10-22T14:53:21.561Z,1.65
2022-10-22T14:55:49.320Z,1.40
2022-10-22T14:58:16.432Z,1.63
2022-10-22T15:00:43.496Z,2.53
2022-10-22T15:03:11.731Z,1.55
2022-10-22T15:05:44.638Z,2.47
2022-10-22T15:08:12.867Z,2.55
2022-10-22T15:10:40.335Z,2.53
2022-10-22T15:13:07.309Z,2.90
2022-10-22T15:15:39.288Z,3.42
2022-10-22T15:18:06.801Z,3.38
2022-10-22T15:20:33.613Z,3.85
2022-10-22T15:23:00.641Z,3.30
2022-10-22T15:25:27.616Z,3.63
2022-10-22T15:27:58.474Z,3.30
2022-10-22T15:30:28.821Z,3.08
2022-10-22T15:32:55.703Z,2.22
2022-10-22T15:35:22.739Z,2.25
2022-10-22T15:37:51.677Z,2.00
2022-10-22T15:40:18.581Z,1.70
2022-10-22T15:42:46.731Z,2.38
2022-10-22T15:45:13.422Z,1.80
2022-10-22T15:47:40.412Z,1.75
2022-10-22T15:50:08.043Z,1.90
2022-10-22T15:52:35.043Z,1.83
2022-10-22T15:55:04.362Z,2.00
2022-10-22T15:57:31.145Z,2.33
2022-10-22T15:59:57.809Z,2.72
2022-10-22T16:02:24.599Z,2.78
2022-10-22T16:04:51.251Z,2.53
2022-10-22T16:07:19.896Z,2.40
2022-10-22T16:09:49.176Z,2.15
2022-10-22T16:12:18.702Z,2.85
2022-10-22T16:14:45.411Z,2.55
2022-10-22T16:17:12.190Z,2.85
2022-10-22T16:19:38.848Z,2.50
2022-10-22T16:22:05.710Z,2.58
2022-10-22T16:24:32.369Z,2.30
2022-10-22T16:27:00.293Z,2.28
2022-10-22T16:29:27.019Z,2.03
2022-10-22T16:31:53.721Z,2.88
2022-10-22T16:34:20.395Z,2.35
2022-10-22T16:36:47.805Z,2.10
2022-10-22T16:39:14.574Z,2.22
2022-10-22T16:41:41.311Z,2.28
2022-10-22T16:44:10.104Z,1.88
2022-10-22T16:46:38.699Z,1.98
2022-10-22T16:49:06.007Z,1.98
2022-10-22T16:51:33.158Z,2.30
2022-10-22T16:53:59.942Z,3.03
2022-10-22T16:56:27.125Z,3.30
2022-10-22T16:58:57.664Z,3.08
2022-10-22T17:01:26.638Z,2.58
2022-10-22T17:03:54.813Z,2.45
2022-10-22T17:06:22.390Z,2.70
2022-10-22T17:08:49.370Z,2.22
2022-10-22T17:11:19.589Z,2.22
2022-10-22T17:13:48.889Z,2.85
2022-10-22T17:16:17.089Z,3.05
2022-10-22T17:21:14.088Z,2.97
2022-10-22T17:23:42.634Z,3.58
2022-10-22T17:26:14.657Z,2.63
2022-10-22T17:28:41.517Z,2.63
2022-10-22T17:31:20.311Z,2.47
2022-10-22T17:33:47.978Z,2.70
2022-10-22T17:36:15.268Z,2.53
2022-10-22T17:38:42.680Z,2.75
2022-10-22T17:41:14.553Z,3.17
2022-10-22T17:43:41.598Z,2.80
2022-10-22T17:46:18.692Z,2.88
2022-10-22T17:48:48.502Z,2.60
2022-10-22T17:51:17.076Z,3.20
2022-10-22T17:53:45.798Z,3.22
2022-10-22T17:56:18.290Z,3.38
2022-10-22T17:58:45.134Z,3.55
2022-10-22T18:01:18.044Z,3.60
2022-10-22T18:03:45.977Z,4.57
2022-10-22T18:06:13.634Z,6.38
2022-10-22T18:08:40.837Z,7.57
2022-10-22T18:11:09.484Z,8.95
2022-10-22T18:13:36.297Z,9.55
2022-10-22T18:16:03.115Z,11.43
2022-10-22T18:18:32.181Z,13.93
2022-10-22T18:21:00.612Z,12.55
2022-10-22T18:23:27.848Z,11.15
2022-10-22T18:25:54.491Z,9.95
2022-10-22T18:28:21.601Z,9.05
2022-10-22T18:30:48.496Z,8.25
2022-10-22T18:33:17.567Z,8.07
2022-10-22T18:35:46.066Z,8.70
2022-10-22T18:38:12.866Z,8.30
2022-10-22T18:40:46.505Z,8.85
2022-10-22T18:43:13.212Z,9.07
2022-10-22T18:45:44.047Z,11.32
2022-10-22T18:48:11.122Z,14.35
2022-10-22T18:50:37.825Z,15.18
2022-10-22T18:53:04.643Z,17.13
2022-10-22T18:55:31.358Z,18.67
2022-10-22T18:58:00.363Z,19.90
2022-10-22T19:00:27.273Z,19.42
2022-10-22T19:02:55.033Z,19.10
2022-10-22T19:05:21.834Z,14.77
2022-10-22T19:07:50.027Z,14.55
2022-10-22T19:10:17.719Z,13.82
2022-10-22T19:12:44.562Z,15.55
2022-10-22T19:15:11.271Z,14.77
2022-10-22T19:17:38.079Z,12.30
2022-10-22T19:20:05.313Z,11.70
2022-10-22T19:22:32.496Z,11.13
2022-10-22T19:24:59.214Z,11.68
2022-10-22T19:27:26.072Z,10.75
2022-10-22T19:29:53.073Z,9.18
2022-10-22T19:32:20.304Z,9.07
2022-10-22T19:34:47.462Z,7.32
2022-10-22T19:37:14.171Z,7.53
2022-10-22T19:39:40.890Z,6.88
2022-10-22T19:42:07.620Z,6.90
2022-10-22T19:44:34.294Z,7.43
2022-10-22T19:47:01.026Z,7.18
2022-10-22T19:49:27.698Z,6.72
2022-10-22T19:51:54.437Z,7.72
2022-10-22T19:54:21.225Z,6.65
2022-10-22T19:56:48.573Z,6.75
2022-10-22T19:59:16.487Z,6.43
2022-10-22T20:01:43.500Z,6.43
2022-10-22T20:04:14.600Z,6.30
2022-10-22T20:06:41.366Z,5.90
2022-10-22T20:09:08.209Z,5.53
2022-10-22T20:11:34.928Z,6.45
2022-10-22T20:14:01.708Z,5.75
2022-10-22T20:16:30.102Z,6.25
2022-10-22T20:19:01.589Z,6.13
2022-10-22T20:21:28.316Z,6.07
2022-10-22T20:23:56.522Z,6.05
2022-10-22T20:26:24.611Z,5.22
2022-10-22T20:28:51.848Z,5.60
2022-10-22T20:31:20.332Z,6.00
2022-10-22T20:33:48.102Z,5.72
2022-10-22T20:36:22.670Z,5.43
2022-10-22T20:38:50.507Z,5.75
2022-10-22T20:41:21.005Z,5.70
2022-10-22T20:43:48.961Z,5.78
2022-10-22T20:46:42.280Z,4.75
2022-10-22T20:49:12.183Z,5.30
2022-10-22T20:51:39.019Z,5.30
2022-10-22T20:54:08.964Z,5.55
2022-10-22T20:56:37.171Z,5.88
2022-10-22T20:59:04.758Z,4.95
2022-10-22T21:01:33.123Z,5.60
2022-10-22T21:03:59.919Z,5.28
2022-10-22T21:06:26.730Z,4.93
2022-10-22T21:08:53.471Z,4.97
2022-10-22T21:11:20.738Z,4.80
2022-10-22T21:13:47.487Z,5.35
2022-10-22T21:16:15.789Z,5.88
2022-10-22T21:18:42.536Z,5.13
2022-10-22T21:21:09.629Z,6.00
2022-10-22T21:23:36.781Z,4.68
2022-10-22T21:26:04.346Z,5.72
2022-10-22T21:28:35.578Z,5.45
2022-10-22T21:31:06.213Z,5.57
2022-10-22T21:33:38.868Z,5.18
2022-10-22T21:36:06.896Z,5.50
2022-10-22T21:38:33.784Z,5.00
2022-10-22T21:41:05.159Z,4.65
2022-10-22T21:43:31.967Z,4.85
2022-10-22T21:46:08.893Z,3.80
2022-10-22T21:48:36.778Z,4.22
2022-10-22T21:51:11.334Z,4.47
2022-10-22T21:53:38.276Z,4.18
2022-10-22T21:56:05.673Z,4.75
2022-10-22T21:58:34.870Z,4.00
2022-10-22T22:01:01.639Z,4.28
2022-10-22T22:03:28.796Z,4.45
2022-10-22T22:06:00.403Z,4.65
2022-10-22T22:08:27.496Z,4.47
2022-10-22T22:11:04.369Z,3.53
2022-10-22T22:13:31.543Z,4.10
2022-10-22T22:16:10.791Z,4.05
2022-10-22T22:18:37.922Z,3.83
2022-10-22T22:21:15.892Z,4.10
2022-10-22T22:23:44.264Z,3.67
2022-10-22T22:26:11.573Z,3.60
2022-10-22T22:28:38.272Z,3.70
2022-10-22T22:31:40.467Z,3.75
2022-10-22T22:34:10.504Z,3.45
2022-10-22T22:36:39.501Z,4.28
2022-10-22T22:39:07.467Z,3.67
2022-10-22T22:41:34.662Z,3.78
2022-10-22T22:44:01.603Z,3.50
2022-10-22T22:46:28.648Z,4.30
2022-10-22T22:48:56.379Z,3.50
2022-10-22T22:51:23.050Z,3.70
2022-10-22T22:53:50.510Z,3.55
2022-10-22T22:56:20.552Z,2.83
2022-10-22T22:58:47.371Z,3.42
2022-10-22T23:01:23.213Z,3.40
2022-10-22T23:04:11.445Z,3.42
2022-10-22T23:06:38.489Z,3.10
2022-10-22T23:09:07.061Z,3.03
2022-10-22T23:11:34.146Z,3.30
2022-10-22T23:14:02.652Z,3.35
2022-10-22T23:16:35.126Z,3.40
2022-10-22T23:19:02.048Z,2.85
2022-10-22T23:21:31.323Z,3.50
2022-10-22T23:24:00.386Z,3.20
2022-10-22T23:26:34.356Z,3.30
2022-10-22T23:29:18.904Z,3.20
2022-10-22T23:31:46.904Z,3.63
2022-10-22T23:34:16.279Z,3.38
2022-10-22T23:36:43.322Z,3.65
2022-10-22T23:39:12.873Z,3.67
2022-10-22T23:41:39.802Z,3.80
2022-10-22T23:44:07.278Z,3.70
2022-10-22T23:46:34.329Z,3.55
2022-10-22T23:49:01.451Z,4.15
2022-10-22T23:51:29.261Z,3.65
2022-10-22T23:53:58.905Z,3.72
2022-10-22T23:56:26.467Z,3.50
2022-10-22T23:58:53.781Z,3.50
